Time;durP1;ratioP1;P1;durP2;ratioP2;P2;SDS_P1;SDS_P2;PMS_P1;PMS_P2;Temp;Humidity;BMP_temperature;BMP_pressure;BME280_temperature;BME280_humidity;BME280_pressure;Samples;Min_cycle;Max_cycle;Signal;HPM_P1;HPM_P2
2021/12/30 00:02:15;;;;;;;3.57;3.00;;;12.60;99.90;;;;;;5027170;28;20196;-70
2021/12/30 00:04:41;;;;;;;3.90;3.53;;;12.60;99.90;;;;;;5036143;28;20251;-70
2021/12/30 00:07:09;;;;;;;4.87;3.50;;;12.50;99.90;;;;;;5024789;28;20701;-70
2021/12/30 00:09:36;;;;;;;3.73;3.00;;;12.50;99.90;;;;;;5031999;28;20632;-71
2021/12/30 00:12:02;;;;;;;3.10;2.80;;;12.50;99.90;;;;;;5026469;28;20449;-70
2021/12/30 00:14:28;;;;;;;5.40;3.50;;;12.50;99.90;;;;;;5010062;28;20430;-70
2021/12/30 00:16:53;;;;;;;5.13;3.40;;;12.50;99.90;;;;;;5019416;28;20425;-71
2021/12/30 00:19:19;;;;;;;4.93;3.87;;;12.40;99.90;;;;;;5011964;28;20197;-71
2021/12/30 00:21:44;;;;;;;5.70;3.90;;;12.40;99.90;;;;;;5010493;28;20550;-71
2021/12/30 00:24:11;;;;;;;4.10;3.00;;;12.20;99.90;;;;;;5023784;28;20216;-70
2021/12/30 00:26:37;;;;;;;5.43;3.60;;;12.20;99.90;;;;;;5028430;28;20174;-69
2021/12/30 00:29:03;;;;;;;4.90;3.90;;;12.20;99.90;;;;;;5030782;28;20417;-71
2021/12/30 00:31:28;;;;;;;4.73;3.50;;;12.20;99.90;;;;;;5019296;28;20467;-71
2021/12/30 00:33:54;;;;;;;7.27;3.70;;;12.60;99.90;;;;;;5032342;28;20652;-71
2021/12/30 00:36:20;;;;;;;5.30;3.90;;;12.00;99.90;;;;;;5025148;28;20323;-70
2021/12/30 00:38:45;;;;;;;3.80;3.50;;;12.00;99.90;;;;;;5015441;28;20202;-71
2021/12/30 00:41:11;;;;;;;7.93;4.57;;;12.00;99.90;;;;;;5009770;28;20209;-70
2021/12/30 00:43:37;;;;;;;5.47;3.20;;;12.00;99.90;;;;;;5009610;28;20732;-70
2021/12/30 00:46:05;;;;;;;3.23;2.90;;;11.90;99.90;;;;;;5015657;28;20260;-71
2021/12/30 00:48:31;;;;;;;4.53;3.57;;;11.90;99.90;;;;;;5030048;28;20432;-70
2021/12/30 00:50:56;;;;;;;6.73;3.63;;;12.00;99.90;;;;;;5027792;28;20431;-70
2021/12/30 00:53:22;;;;;;;13.03;4.90;;;12.00;99.90;;;;;;5029799;28;20513;-70
2021/12/30 00:55:48;;;;;;;11.00;5.40;;;12.00;99.90;;;;;;5029223;28;21040;-71
2021/12/30 00:58:14;;;;;;;15.43;5.63;;;11.90;99.90;;;;;;5030084;28;20170;-71
2021/12/30 01:00:42;;;;;;;15.33;6.47;;;11.90;99.90;;;;;;5021780;28;20166;-71
2021/12/30 01:03:08;;;;;;;13.67;6.43;;;11.90;99.90;;;;;;5033772;28;20541;-70
2021/12/30 01:05:35;;;;;;;7.93;4.30;;;11.90;99.90;;;;;;5032662;28;20467;-70
2021/12/30 01:08:02;;;;;;;10.90;6.00;;;11.90;99.90;;;;;;5029624;28;20552;-70
2021/12/30 01:10:28;;;;;;;8.20;5.30;;;12.20;99.90;;;;;;5029715;28;20437;-70
2021/12/30 01:12:55;;;;;;;12.00;5.20;;;11.80;99.90;;;;;;5026100;28;20515;-70
2021/12/30 01:15:33;;;;;;;20.43;5.60;;;10.80;99.90;;;;;;5009388;28;20640;-70
2021/12/30 01:18:23;;;;;;;9.03;5.40;;;11.80;99.90;;;;;;5010511;28;20467;-70
2021/12/30 01:20:47;;;;;;;11.07;4.90;;;11.80;99.90;;;;;;5009798;28;20621;-70
2021/12/30 01:23:13;;;;;;;7.10;5.03;;;11.80;99.90;;;;;;5012617;28;20441;-71
2021/12/30 01:25:39;;;;;;;15.27;5.30;;;11.80;99.90;;;;;;5012788;28;20471;-70
2021/12/30 01:28:04;;;;;;;4.80;4.13;;;11.80;99.90;;;;;;5029198;28;20456;-70
2021/12/30 01:30:30;;;;;;;9.07;5.50;;;11.70;99.90;;;;;;5023054;28;20174;-70
2021/12/30 01:32:56;;;;;;;8.07;5.80;;;11.60;99.90;;;;;;5033664;28;20307;-70
2021/12/30 01:35:25;;;;;;;10.37;5.60;;;11.50;99.90;;;;;;5030423;28;20197;-70
2021/12/30 01:37:53;;;;;;;8.50;5.83;;;11.60;99.90;;;;;;5027346;28;20201;-70
2021/12/30 01:40:20;;;;;;;9.40;6.40;;;11.60;99.90;;;;;;5027851;28;20427;-71
2021/12/30 01:42:45;;;;;;;12.27;7.20;;;11.60;99.90;;;;;;5026724;28;20512;-70
2021/12/30 01:45:12;;;;;;;10.13;6.50;;;11.60;99.90;;;;;;5018958;28;20525;-71
2021/12/30 01:47:42;;;;;;;13.63;7.70;;;11.70;99.90;;;;;;5024669;28;20218;-70
2021/12/30 01:50:09;;;;;;;10.83;7.03;;;11.80;99.90;;;;;;5014732;28;20889;-70
2021/12/30 01:52:35;;;;;;;10.70;7.00;;;11.80;99.90;;;;;;5025912;28;20519;-71
2021/12/30 01:55:01;;;;;;;10.97;6.73;;;11.80;99.90;;;;;;5042890;28;20791;-71
2021/12/30 01:57:26;;;;;;;10.37;7.20;;;11.80;99.90;;;;;;5037926;28;20176;-70
2021/12/30 01:59:52;;;;;;;12.90;8.30;;;11.90;99.90;;;;;;5009951;28;20426;-70
2021/12/30 02:02:18;;;;;;;8.70;6.37;;;11.80;99.90;;;;;;5025633;28;20674;-70
2021/12/30 02:04:43;;;;;;;6.40;4.80;;;11.80;99.90;;;;;;5030532;28;20581;-70
2021/12/30 02:07:09;;;;;;;11.13;6.60;;;11.80;99.90;;;;;;5026671;28;20257;-70
2021/12/30 02:09:35;;;;;;;10.30;5.23;;;11.80;99.90;;;;;;5028025;28;20174;-70
2021/12/30 02:12:01;;;;;;;8.43;4.83;;;11.70;99.90;;;;;;5027842;28;20198;-70
2021/12/30 02:14:34;;;;;;;9.60;5.87;;;11.70;99.90;;;;;;5025100;28;20433;-70
2021/12/30 02:17:01;;;;;;;14.23;5.43;;;11.70;99.90;;;;;;5006706;28;20425;-70
2021/12/30 02:19:27;;;;;;;6.50;4.87;;;11.70;99.90;;;;;;5012600;28;20417;-70
2021/12/30 02:21:52;;;;;;;8.53;5.00;;;11.70;99.90;;;;;;5013155;28;20420;-70
2021/12/30 02:24:18;;;;;;;9.47;4.90;;;11.70;99.90;;;;;;5029098;28;20261;-71
2021/12/30 02:26:43;;;;;;;10.40;4.43;;;11.70;99.90;;;;;;5026150;28;20260;-71
2021/12/30 02:29:09;;;;;;;5.63;3.00;;;11.70;99.90;;;;;;5028574;28;20269;-70
2021/12/30 02:31:34;;;;;;;4.93;2.50;;;11.70;99.90;;;;;;5022487;28;20238;-70
2021/12/30 02:34:00;;;;;;;6.00;1.97;;;11.90;99.90;;;;;;5035673;28;20204;-70
2021/12/30 02:36:29;;;;;;;5.77;3.00;;;12.00;99.90;;;;;;5022875;28;20662;-70
2021/12/30 02:38:55;;;;;;;3.43;2.80;;;12.10;99.90;;;;;;5025207;28;20182;-69
2021/12/30 02:41:21;;;;;;;3.83;2.37;;;12.00;99.90;;;;;;5009930;28;20425;-70
2021/12/30 02:43:48;;;;;;;4.37;2.50;;;12.00;99.90;;;;;;5008785;28;20211;-71
2021/12/30 02:46:15;;;;;;;2.90;2.00;;;12.10;99.90;;;;;;5008864;28;20250;-70
2021/12/30 02:48:41;;;;;;;1.90;1.80;;;12.10;99.90;;;;;;5024526;28;20938;-70
2021/12/30 02:51:09;;;;;;;6.70;2.30;;;12.30;99.90;;;;;;5014732;28;20421;-70
2021/12/30 02:53:35;;;;;;;3.40;1.90;;;12.30;99.90;;;;;;5019432;28;20557;-71
2021/12/30 02:56:01;;;;;;;2.57;1.97;;;12.40;99.90;;;;;;5027363;28;20428;-71
2021/12/30 02:58:27;;;;;;;5.20;2.10;;;12.50;99.90;;;;;;5027359;28;20425;-70
2021/12/30 03:01:06;;;;;;;2.20;1.77;;;12.50;99.90;;;;;;5017999;28;20440;-70
2021/12/30 03:03:32;;;;;;;4.77;1.80;;;12.50;99.90;;;;;;5036689;28;20667;-70
2021/12/30 03:06:00;;;;;;;2.67;1.80;;;12.50;99.90;;;;;;5028730;28;20417;-70
2021/12/30 03:08:26;;;;;;;2.20;1.80;;;12.50;99.90;;;;;;5013830;28;20426;-70
2021/12/30 03:10:52;;;;;;;3.93;1.80;;;12.60;99.90;;;;;;5021432;28;20925;-70
2021/12/30 03:13:25;;;;;;;6.77;2.03;;;12.60;99.90;;;;;;5027366;28;20452;-70
2021/12/30 03:15:50;;;;;;;4.57;1.93;;;12.60;99.90;;;;;;5026114;28;20260;-70
2021/12/30 03:18:16;;;;;;;4.30;1.97;;;12.60;99.90;;;;;;5020331;28;20591;-70
2021/12/30 03:20:41;;;;;;;2.43;1.80;;;12.70;99.90;;;;;;5022486;28;20174;-70
2021/12/30 03:23:07;;;;;;;1.90;1.80;;;12.70;99.90;;;;;;5009315;28;20209;-70
2021/12/30 03:25:32;;;;;;;2.53;2.00;;;12.70;99.90;;;;;;5008115;28;20645;-70
2021/12/30 03:27:58;;;;;;;2.43;1.87;;;12.70;99.90;;;;;;5024538;28;20177;-70
2021/12/30 03:30:25;;;;;;;2.83;1.90;;;12.70;99.90;;;;;;5024044;28;20198;-70
2021/12/30 03:32:51;;;;;;;2.73;2.00;;;12.70;99.90;;;;;;5019542;28;20452;-70
2021/12/30 03:35:17;;;;;;;5.20;1.80;;;12.80;99.90;;;;;;5039628;28;20428;-70
2021/12/30 03:37:44;;;;;;;2.53;2.00;;;12.80;99.90;;;;;;5018203;28;20178;-70
2021/12/30 03:40:13;;;;;;;5.87;2.10;;;12.70;99.90;;;;;;5007999;28;20411;-70
2021/12/30 03:42:39;;;;;;;2.77;1.83;;;12.70;99.90;;;;;;5007990;28;20452;-70
2021/12/30 03:45:07;;;;;;;5.70;2.10;;;12.70;99.90;;;;;;5008494;28;20420;-70
2021/12/30 03:47:37;;;;;;;5.10;1.83;;;12.70;99.90;;;;;;5023033;28;20452;-71
2021/12/30 03:50:05;;;;;;;1.63;1.53;;;12.70;99.90;;;;;;5027531;28;20415;-70
2021/12/30 03:52:31;;;;;;;6.37;2.07;;;12.80;99.90;;;;;;5026400;28;20476;-70
2021/12/30 03:54:57;;;;;;;4.03;2.20;;;12.80;99.90;;;;;;5027269;28;20433;-70
2021/12/30 03:57:23;;;;;;;4.20;2.00;;;12.80;99.90;;;;;;5023091;28;20553;-70
2021/12/30 03:59:49;;;;;;;5.67;1.70;;;12.80;99.90;;;;;;5008118;28;20402;-70
2021/12/30 04:02:14;;;;;;;3.07;2.20;;;12.80;99.90;;;;;;5021969;28;20454;-70
2021/12/30 04:04:40;;;;;;;4.53;2.20;;;12.80;99.90;;;;;;5033955;28;20208;-70
2021/12/30 04:07:06;;;;;;;2.20;1.80;;;12.80;99.90;;;;;;5024624;28;20261;-70
2021/12/30 04:09:31;;;;;;;4.30;1.97;;;12.80;99.90;;;;;;5026304;28;20583;-70
2021/12/30 04:11:57;;;;;;;7.40;1.97;;;12.80;99.90;;;;;;5021858;28;20205;-71
2021/12/30 04:14:26;;;;;;;8.17;2.37;;;12.80;99.90;;;;;;5026868;28;20170;-71
2021/12/30 04:16:52;;;;;;;3.60;1.80;;;12.80;99.90;;;;;;5022498;28;20178;-70
2021/12/30 04:19:18;;;;;;;6.10;2.20;;;12.80;99.90;;;;;;5025922;28;20894;-70
2021/12/30 04:21:44;;;;;;;6.00;2.30;;;12.80;99.90;;;;;;5024592;28;20547;-70
2021/12/30 04:24:10;;;;;;;7.63;2.30;;;12.80;99.90;;;;;;5026170;28;20328;-70
2021/12/30 04:26:36;;;;;;;4.60;1.73;;;12.80;99.90;;;;;;5008172;28;20609;-70
2021/12/30 04:29:02;;;;;;;4.37;2.30;;;12.90;99.90;;;;;;5024322;28;20425;-70
2021/12/30 04:31:28;;;;;;;3.50;1.60;;;12.90;99.90;;;;;;5015700;28;20213;-70
2021/12/30 04:33:53;;;;;;;3.23;2.03;;;12.90;99.90;;;;;;5035950;28;20440;-70
2021/12/30 04:36:19;;;;;;;2.87;1.70;;;12.90;99.90;;;;;;5025327;28;20182;-71
2021/12/30 04:38:45;;;;;;;3.50;1.73;;;12.90;99.90;;;;;;5012867;28;20174;-70
2021/12/30 04:41:10;;;;;;;2.33;1.53;;;12.90;99.90;;;;;;5014938;28;20546;-70
2021/12/30 04:43:36;;;;;;;7.53;1.67;;;12.90;99.90;;;;;;5028931;28;20217;-70
2021/12/30 04:46:02;;;;;;;2.50;1.40;;;13.00;99.90;;;;;;5030657;28;20170;-71
2021/12/30 04:48:28;;;;;;;3.13;1.50;;;13.00;99.90;;;;;;5018070;28;20171;-70
2021/12/30 04:50:54;;;;;;;3.23;1.60;;;13.00;99.90;;;;;;5010229;28;20426;-70
2021/12/30 04:53:20;;;;;;;4.53;1.90;;;13.10;99.90;;;;;;5009058;28;20217;-69
2021/12/30 04:55:47;;;;;;;2.50;1.37;;;13.10;99.90;;;;;;5029672;28;20172;-70
2021/12/30 04:58:12;;;;;;;4.10;1.20;;;13.20;99.90;;;;;;5029353;28;20223;-70
2021/12/30 05:00:38;;;;;;;1.60;1.50;;;13.20;99.90;;;;;;5027526;28;20420;-70
2021/12/30 05:03:12;;;;;;;3.60;1.80;;;13.20;99.90;;;;;;5038779;28;20255;-71
2021/12/30 05:05:38;;;;;;;3.70;1.50;;;13.20;99.90;;;;;;5021408;28;20660;-70
2021/12/30 05:08:04;;;;;;;2.33;1.50;;;13.30;99.90;;;;;;5017584;28;20435;-70
2021/12/30 05:10:30;;;;;;;2.03;1.37;;;13.30;99.90;;;;;;5029631;28;20738;-70
2021/12/30 05:12:55;;;;;;;2.50;1.50;;;13.30;99.90;;;;;;5030401;28;20209;-70
2021/12/30 05:15:21;;;;;;;1.40;1.30;;;13.30;99.90;;;;;;5012980;28;20227;-71
2021/12/30 05:17:47;;;;;;;4.00;1.30;;;13.30;99.90;;;;;;5006759;28;20175;-71
2021/12/30 05:20:13;;;;;;;1.20;1.10;;;13.30;99.90;;;;;;5010204;28;20197;-71
2021/12/30 05:22:40;;;;;;;1.67;1.10;;;13.40;99.90;;;;;;5009340;28;20430;-70
2021/12/30 05:25:06;;;;;;;3.40;1.10;;;13.40;99.90;;;;;;5023635;28;20248;-71
2021/12/30 05:27:31;;;;;;;2.73;1.20;;;13.50;99.90;;;;;;5028640;28;20927;-70
2021/12/30 05:29:57;;;;;;;1.20;1.10;;;13.50;99.90;;;;;;5022979;28;20611;-70
2021/12/30 05:32:22;;;;;;;7.43;1.10;;;13.50;99.90;;;;;;5030302;28;20216;-71
2021/12/30 05:34:48;;;;;;;8.03;1.27;;;13.50;99.90;;;;;;5017428;28;20183;-70
2021/12/30 05:37:13;;;;;;;1.10;1.00;;;13.60;99.90;;;;;;5008882;28;20178;-71
2021/12/30 05:39:41;;;;;;;1.20;1.10;;;13.60;99.90;;;;;;5013748;28;20177;-70
2021/12/30 05:42:08;;;;;;;2.90;1.20;;;13.60;99.90;;;;;;5029493;28;20210;-71
2021/12/30 05:44:33;;;;;;;2.50;1.20;;;13.60;99.90;;;;;;5023621;28;20454;-71
2021/12/30 05:46:59;;;;;;;1.77;1.17;;;13.60;99.90;;;;;;5027607;28;20702;-70
2021/12/30 05:49:24;;;;;;;1.20;1.10;;;13.70;99.90;;;;;;5024883;28;20175;-71
2021/12/30 05:51:50;;;;;;;1.30;1.20;;;13.70;99.90;;;;;;5008932;28;20203;-70
2021/12/30 05:54:15;;;;;;;1.33;1.10;;;13.70;99.90;;;;;;5022163;28;20252;-71
2021/12/30 05:56:41;;;;;;;1.30;1.20;;;13.70;99.90;;;;;;5009504;28;20582;-70
2021/12/30 05:59:06;;;;;;;1.20;1.10;;;13.70;99.90;;;;;;5015896;28;20177;-71
2021/12/30 06:01:32;;;;;;;2.03;1.20;;;13.70;99.90;;;;;;5023701;28;20184;-71
2021/12/30 06:03:57;;;;;;;1.77;1.20;;;13.70;99.90;;;;;;5033824;28;20289;-71
2021/12/30 06:06:24;;;;;;;1.10;1.00;;;13.70;99.90;;;;;;5018349;28;20241;-70
2021/12/30 06:08:50;;;;;;;1.67;1.10;;;13.70;99.90;;;;;;5015830;28;20183;-70
2021/12/30 06:11:16;;;;;;;3.30;1.40;;;13.70;99.90;;;;;;5009307;28;20941;-70
2021/12/30 06:13:42;;;;;;;1.50;1.30;;;13.70;99.90;;;;;;5010504;28;20426;-70
2021/12/30 06:16:08;;;;;;;1.30;1.20;;;13.70;99.90;;;;;;5009269;28;20182;-70
2021/12/30 06:18:33;;;;;;;1.20;1.10;;;13.70;99.90;;;;;;5017068;28;20177;-70
2021/12/30 06:20:59;;;;;;;3.20;1.10;;;13.80;99.90;;;;;;5008928;28;20179;-71
2021/12/30 06:23:24;;;;;;;1.43;1.10;;;13.80;99.90;;;;;;5008575;28;20556;-71
2021/12/30 06:25:50;;;;;;;2.60;1.50;;;13.80;99.90;;;;;;5010188;28;20240;-70
2021/12/30 06:28:15;;;;;;;2.30;1.20;;;13.80;99.90;;;;;;5013409;28;20315;-70
2021/12/30 06:30:41;;;;;;;2.20;1.40;;;13.80;99.90;;;;;;5025859;28;20177;-70
2021/12/30 06:33:06;;;;;;;4.07;1.43;;;13.80;99.90;;;;;;5029529;28;20758;-71
2021/12/30 06:35:34;;;;;;;3.73;1.47;;;13.80;99.90;;;;;;5031495;28;20920;-69
2021/12/30 06:38:01;;;;;;;2.70;1.30;;;13.80;99.90;;;;;;5024055;28;20866;-71
2021/12/30 06:40:27;;;;;;;2.23;1.20;;;13.80;99.90;;;;;;5009045;28;20416;-72
2021/12/30 06:42:52;;;;;;;1.50;1.40;;;13.90;99.90;;;;;;5014353;28;20436;-70
2021/12/30 06:45:18;;;;;;;2.30;1.40;;;13.90;99.90;;;;;;5010860;28;20923;-70
2021/12/30 06:47:47;;;;;;;1.37;1.27;;;13.90;99.90;;;;;;5008489;28;20174;-70
2021/12/30 06:50:15;;;;;;;1.50;1.17;;;13.90;99.90;;;;;;5008860;28;20621;-71
2021/12/30 06:52:43;;;;;;;1.60;1.50;;;13.90;99.90;;;;;;5007576;28;20556;-71
2021/12/30 06:55:09;;;;;;;2.13;1.10;;;13.90;99.90;;;;;;5016273;28;20531;-70
2021/12/30 06:57:35;;;;;;;3.57;1.40;;;13.90;99.90;;;;;;5027415;28;20499;-70
2021/12/30 07:00:04;;;;;;;2.37;1.30;;;13.90;99.90;;;;;;5014675;28;20417;-70
2021/12/30 07:02:30;;;;;;;1.23;1.13;;;13.90;99.90;;;;;;5015357;28;20761;-69
2021/12/30 07:04:55;;;;;;;1.67;1.33;;;13.90;99.90;;;;;;5033689;28;20424;-70
2021/12/30 07:07:21;;;;;;;1.37;1.27;;;14.00;99.90;;;;;;5025451;28;20174;-70
2021/12/30 07:09:47;;;;;;;1.37;1.27;;;13.90;99.90;;;;;;5019374;28;20190;-70
2021/12/30 07:12:13;;;;;;;1.97;1.40;;;13.90;99.90;;;;;;5008382;28;20199;-70
2021/12/30 07:14:38;;;;;;;1.93;1.37;;;13.90;99.90;;;;;;5007058;28;20428;-70
2021/12/30 07:17:04;;;;;;;1.40;1.30;;;14.00;99.90;;;;;;5009529;28;20179;-70
2021/12/30 07:19:29;;;;;;;1.33;1.23;;;14.00;99.90;;;;;;5008825;28;20269;-71
2021/12/30 07:21:55;;;;;;;2.57;1.20;;;14.00;99.90;;;;;;5005664;28;20429;-70
2021/12/30 07:24:21;;;;;;;2.57;1.17;;;14.00;99.90;;;;;;5010634;28;20178;-70
2021/12/30 07:26:47;;;;;;;2.50;1.27;;;14.00;99.90;;;;;;5019991;28;20243;-71
2021/12/30 07:29:13;;;;;;;1.40;1.30;;;14.10;99.90;;;;;;5027989;28;20212;-70
2021/12/30 07:31:38;;;;;;;1.30;1.17;;;14.10;99.90;;;;;;5022577;28;20502;-70
2021/12/30 07:34:04;;;;;;;1.93;1.20;;;14.10;99.90;;;;;;5039536;28;20844;-71
2021/12/30 07:36:29;;;;;;;1.73;1.40;;;14.10;99.90;;;;;;5015293;28;20171;-70
2021/12/30 07:38:55;;;;;;;1.60;1.33;;;14.10;99.90;;;;;;5007885;28;20312;-70
2021/12/30 07:41:20;;;;;;;2.83;1.30;;;14.10;99.90;;;;;;5007596;28;20201;-71
2021/12/30 07:43:46;;;;;;;1.30;1.20;;;14.20;99.90;;;;;;5008051;28;20277;-70
2021/12/30 07:46:12;;;;;;;1.33;1.23;;;14.20;99.90;;;;;;5011924;28;20182;-70
2021/12/30 07:48:38;;;;;;;2.20;1.30;;;14.20;99.90;;;;;;5007724;28;20174;-70
2021/12/30 07:51:03;;;;;;;2.40;1.30;;;14.20;99.90;;;;;;5007516;28;20481;-69
2021/12/30 07:53:29;;;;;;;1.33;1.13;;;14.20;99.90;;;;;;5013240;28;20281;-70
2021/12/30 07:55:55;;;;;;;4.60;1.30;;;14.20;99.90;;;;;;5020798;28;20224;-71
2021/12/30 07:58:20;;;;;;;1.40;1.30;;;14.30;99.90;;;;;;5009904;28;20606;-70
2021/12/30 15:32:03;;;;;;;2.53;1.50;;;13.80;99.90;;;;;;5080962;28;20550;-69
2021/12/30 15:34:32;;;;;;;5.17;2.60;;;13.80;99.90;;;;;;5072715;28;20207;-69
2021/12/30 15:36:58;;;;;;;2.67;1.73;;;13.90;99.90;;;;;;5075370;28;20481;-68
2021/12/30 15:39:24;;;;;;;2.77;1.53;;;14.00;99.90;;;;;;5063462;28;20769;-69
2021/12/30 15:41:51;;;;;;;2.17;1.87;;;14.20;99.90;;;;;;5053766;28;20416;-68
2021/12/30 15:44:17;;;;;;;1.97;1.80;;;14.30;99.90;;;;;;5057029;28;20207;-68
2021/12/30 15:46:43;;;;;;;2.00;1.70;;;14.40;99.90;;;;;;5064342;28;20461;-68
2021/12/30 15:49:09;;;;;;;1.87;1.30;;;14.40;99.90;;;;;;5062889;28;20439;-69
2021/12/30 15:51:36;;;;;;;1.77;1.67;;;14.50;99.90;;;;;;5055666;28;20201;-69
2021/12/30 15:54:04;;;;;;;2.10;1.50;;;14.60;99.90;;;;;;5049769;28;20550;-69
2021/12/30 15:56:30;;;;;;;7.50;1.40;;;14.70;99.90;;;;;;5058514;28;20420;-68
2021/12/30 15:58:56;;;;;;;1.73;1.50;;;14.70;99.90;;;;;;5042821;28;20898;-69
2021/12/30 16:01:21;;;;;;;2.47;1.97;;;14.80;99.90;;;;;;5047329;28;20432;-69
2021/12/30 16:03:47;;;;;;;3.70;1.50;;;14.80;99.90;;;;;;5069605;28;20608;-69
2021/12/30 16:06:12;;;;;;;3.10;2.00;;;14.80;99.90;;;;;;5058676;28;20192;-69
2021/12/30 16:08:39;;;;;;;1.50;1.40;;;14.80;99.90;;;;;;5063800;28;20455;-71
2021/12/30 16:11:05;;;;;;;1.93;1.50;;;14.90;99.90;;;;;;5065130;28;20569;-71
2021/12/30 16:13:30;;;;;;;1.60;1.50;;;14.90;99.90;;;;;;5045593;28;20438;-70
2021/12/30 16:15:56;;;;;;;2.43;1.40;;;14.90;99.90;;;;;;5053615;28;20173;-70
2021/12/30 16:18:22;;;;;;;2.20;1.70;;;14.90;99.90;;;;;;5047285;28;20307;-70
2021/12/30 16:20:49;;;;;;;4.70;1.80;;;14.90;99.90;;;;;;5042098;28;20231;-71
2021/12/30 16:23:15;;;;;;;3.40;1.60;;;14.90;99.90;;;;;;5044429;28;20203;-71
2021/12/30 16:25:41;;;;;;;2.87;1.87;;;14.90;99.90;;;;;;5044616;28;20415;-70
2021/12/30 16:28:06;;;;;;;2.70;1.70;;;15.00;99.90;;;;;;5045919;28;20220;-70
2021/12/30 16:30:32;;;;;;;5.13;2.10;;;14.90;99.90;;;;;;5061127;28;20515;-70
2021/12/30 16:32:58;;;;;;;2.73;1.80;;;14.90;99.90;;;;;;5058807;28;20200;-70
2021/12/30 16:35:24;;;;;;;2.93;2.00;;;14.90;99.90;;;;;;5055593;28;20492;-71
2021/12/30 16:37:50;;;;;;;1.50;1.40;;;14.90;99.90;;;;;;5043506;28;20174;-70
2021/12/30 16:40:16;;;;;;;3.03;1.57;;;14.90;99.90;;;;;;5061147;28;20950;-70
2021/12/30 16:42:43;;;;;;;3.20;1.93;;;14.90;99.90;;;;;;5055140;28;20193;-70
2021/12/30 16:45:11;;;;;;;3.20;1.90;;;14.90;99.90;;;;;;5037006;28;20438;-70
2021/12/30 16:47:37;;;;;;;2.97;1.53;;;14.90;99.90;;;;;;5037955;28;20424;-71
2021/12/30 16:50:03;;;;;;;2.37;1.60;;;14.90;99.90;;;;;;5049119;28;20534;-70
2021/12/30 16:52:29;;;;;;;6.03;3.00;;;14.80;99.90;;;;;;5050388;28;20804;-70
2021/12/30 16:54:54;;;;;;;6.47;5.53;;;14.80;99.90;;;;;;5049716;28;20427;-70
2021/12/30 16:57:20;;;;;;;4.37;2.80;;;15.10;99.90;;;;;;5042305;28;20188;-70
2021/12/30 16:59:45;;;;;;;6.70;3.50;;;14.80;99.90;;;;;;5049480;28;20177;-71
2021/12/30 17:02:11;;;;;;;3.17;2.87;;;14.90;99.90;;;;;;5041425;28;20572;-70
2021/12/30 17:04:36;;;;;;;9.90;7.97;;;14.90;99.90;;;;;;5041237;28;20182;-70
2021/12/30 17:07:06;;;;;;;3.40;2.30;;;14.80;99.90;;;;;;5029567;28;20188;-70
2021/12/30 17:09:33;;;;;;;2.60;2.13;;;14.70;99.90;;;;;;5030826;28;20165;-70
2021/12/30 17:11:59;;;;;;;4.17;2.73;;;14.70;99.90;;;;;;5033081;28;20500;-70
2021/12/30 17:14:24;;;;;;;2.87;2.20;;;14.70;99.90;;;;;;5048951;28;20416;-70
2021/12/30 17:16:50;;;;;;;2.80;2.33;;;14.70;99.90;;;;;;5049784;28;20169;-70
2021/12/30 17:19:15;;;;;;;3.10;2.23;;;14.60;99.90;;;;;;5050685;28;20234;-71
2021/12/30 17:21:41;;;;;;;3.43;2.13;;;14.60;99.90;;;;;;5043854;28;20181;-70
2021/12/30 17:24:06;;;;;;;2.40;2.20;;;14.60;99.90;;;;;;5034076;28;20615;-71
2021/12/30 17:26:32;;;;;;;4.30;3.33;;;14.60;99.90;;;;;;5034696;28;20571;-71
2021/12/30 17:28:59;;;;;;;3.13;1.90;;;14.70;99.90;;;;;;5050196;28;20173;-71
2021/12/30 17:31:25;;;;;;;2.23;1.93;;;14.70;99.90;;;;;;5042409;28;20206;-70
2021/12/30 17:33:53;;;;;;;4.30;2.10;;;14.70;99.90;;;;;;5057881;28;20434;-71
2021/12/30 17:36:18;;;;;;;2.40;2.00;;;14.70;99.90;;;;;;5067184;28;20419;-70
2021/12/30 17:38:45;;;;;;;3.40;2.90;;;14.60;99.90;;;;;;5070082;28;20421;-70
2021/12/30 17:41:11;;;;;;;4.50;2.23;;;14.60;99.90;;;;;;5060235;28;20201;-71
2021/12/30 17:43:36;;;;;;;2.37;2.17;;;14.60;99.90;;;;;;5050711;28;20454;-71
2021/12/30 17:46:02;;;;;;;4.97;3.50;;;14.70;99.90;;;;;;5047886;28;20172;-70
2021/12/30 17:48:32;;;;;;;8.17;2.30;;;14.70;99.90;;;;;;5048263;28;20173;-70
2021/12/30 17:51:01;;;;;;;3.80;2.50;;;14.70;99.90;;;;;;5040468;28;20206;-70
2021/12/30 17:53:28;;;;;;;4.30;3.13;;;14.70;99.90;;;;;;5027058;28;20527;-70
2021/12/30 17:55:54;;;;;;;3.03;2.27;;;14.70;99.90;;;;;;5029770;28;20409;-70
2021/12/30 17:58:20;;;;;;;2.30;2.10;;;14.70;99.90;;;;;;5043347;28;20427;-70
2021/12/30 18:00:49;;;;;;;5.13;2.83;;;14.70;99.90;;;;;;5045007;28;20530;-71
2021/12/30 18:03:16;;;;;;;8.40;6.43;;;14.70;99.90;;;;;;5054063;28;20193;-71
2021/12/30 18:05:42;;;;;;;4.93;4.40;;;14.70;99.90;;;;;;5066399;28;20410;-70
2021/12/30 18:08:07;;;;;;;4.53;3.30;;;14.70;99.90;;;;;;5056866;28;20433;-70
2021/12/30 18:10:35;;;;;;;6.43;5.60;;;14.60;99.90;;;;;;5047626;28;20534;-70
2021/12/30 18:13:01;;;;;;;6.60;4.40;;;14.60;99.90;;;;;;5048755;28;20193;-71
2021/12/30 18:15:26;;;;;;;4.80;4.17;;;14.60;99.90;;;;;;5043147;28;20434;-70
2021/12/30 18:17:52;;;;;;;13.57;9.23;;;14.60;99.90;;;;;;5047375;28;20177;-71
2021/12/30 18:20:18;;;;;;;4.67;2.90;;;14.60;99.90;;;;;;5047927;28;20181;-71
2021/12/30 18:22:43;;;;;;;5.80;3.50;;;14.60;99.90;;;;;;5048487;28;20587;-70
2021/12/30 18:25:09;;;;;;;4.70;4.17;;;14.60;99.90;;;;;;5046516;28;20620;-70
2021/12/30 18:27:35;;;;;;;4.37;3.17;;;14.60;99.90;;;;;;5028543;28;20281;-71
2021/12/30 18:30:01;;;;;;;5.60;3.10;;;14.60;99.90;;;;;;5027537;28;20245;-70
2021/12/30 18:32:27;;;;;;;3.33;2.60;;;14.60;99.90;;;;;;5046104;28;20689;-70
2021/12/30 18:34:53;;;;;;;4.63;2.70;;;14.60;99.90;;;;;;5060752;28;20636;-70
2021/12/30 18:37:19;;;;;;;6.03;3.53;;;14.60;99.90;;;;;;5047713;28;20416;-71
2021/12/30 18:39:45;;;;;;;3.00;2.57;;;14.60;99.90;;;;;;5028677;28;20477;-70
2021/12/30 18:42:12;;;;;;;2.93;2.50;;;14.60;99.90;;;;;;5038710;28;20250;-70
2021/12/30 18:44:38;;;;;;;4.17;2.60;;;14.60;99.90;;;;;;5048427;28;20161;-70
2021/12/30 18:47:05;;;;;;;4.90;3.70;;;14.60;99.90;;;;;;5037775;28;20419;-70
2021/12/30 18:49:31;;;;;;;4.50;2.77;;;14.60;99.90;;;;;;5039642;28;20431;-70
2021/12/30 18:51:56;;;;;;;3.80;2.93;;;14.60;99.90;;;;;;5041347;28;20459;-70
2021/12/30 18:54:22;;;;;;;9.90;5.50;;;14.60;99.90;;;;;;5036476;28;20189;-70
2021/12/30 18:56:47;;;;;;;3.90;3.20;;;14.50;99.90;;;;;;5038918;28;20271;-70
2021/12/30 18:59:13;;;;;;;5.17;4.40;;;14.50;99.90;;;;;;5047116;28;20482;-71
2021/12/30 19:01:40;;;;;;;6.27;2.80;;;14.50;99.90;;;;;;5041003;28;20212;-71
2021/12/30 19:04:06;;;;;;;4.53;3.43;;;14.50;99.90;;;;;;5059779;28;20448;-70
2021/12/30 19:06:31;;;;;;;5.43;3.00;;;14.50;99.90;;;;;;5030234;28;20472;-70
2021/12/30 19:08:57;;;;;;;3.77;2.80;;;14.50;99.90;;;;;;5026829;28;20451;-70
2021/12/30 19:11:23;;;;;;;4.53;2.30;;;14.50;99.90;;;;;;5033663;28;20290;-70
2021/12/30 19:13:49;;;;;;;5.97;3.73;;;14.50;99.90;;;;;;5034120;28;20267;-70
2021/12/30 19:16:15;;;;;;;6.80;4.50;;;14.60;99.90;;;;;;5046903;28;20581;-70
2021/12/30 19:18:40;;;;;;;7.90;3.30;;;14.60;99.90;;;;;;5041010;28;20427;-70
2021/12/30 19:21:10;;;;;;;4.13;3.20;;;14.60;99.90;;;;;;5028314;28;20264;-69
2021/12/30 19:23:37;;;;;;;7.30;3.30;;;14.60;99.90;;;;;;5047372;28;20192;-70
2021/12/30 19:26:05;;;;;;;3.93;2.93;;;14.50;99.90;;;;;;5046385;28;20426;-70
2021/12/30 19:28:31;;;;;;;5.80;3.50;;;14.50;99.90;;;;;;5047159;28;20498;-70
2021/12/30 19:30:57;;;;;;;12.23;2.80;;;14.50;99.90;;;;;;5042912;28;20472;-70
2021/12/30 19:33:23;;;;;;;3.43;3.13;;;14.50;99.90;;;;;;5054060;28;20431;-70
2021/12/30 19:35:51;;;;;;;3.63;3.23;;;14.50;99.90;;;;;;5038172;28;20260;-70
2021/12/30 19:38:16;;;;;;;6.37;3.60;;;14.90;99.90;;;;;;5025396;28;20445;-70
2021/12/30 19:40:42;;;;;;;4.60;3.20;;;14.50;99.90;;;;;;5040957;28;20967;-71
2021/12/30 19:43:09;;;;;;;7.67;4.77;;;14.50;99.90;;;;;;5046485;28;20647;-70
2021/12/30 19:45:36;;;;;;;4.40;3.60;;;14.50;99.90;;;;;;5031552;28;20180;-70
2021/12/30 19:48:04;;;;;;;5.73;3.50;;;14.50;99.90;;;;;;5025991;28;20428;-70
2021/12/30 19:50:36;;;;;;;3.27;2.97;;;14.50;99.90;;;;;;5031184;28;20554;-71
2021/12/30 19:53:04;;;;;;;3.13;2.80;;;14.50;99.90;;;;;;5026893;28;20433;-70
2021/12/30 19:55:29;;;;;;;5.23;3.30;;;14.50;99.90;;;;;;5037651;28;20443;-71
2021/12/30 19:57:55;;;;;;;12.83;3.60;;;14.50;99.90;;;;;;5045106;28;20577;-70
2021/12/30 20:00:25;;;;;;;4.00;3.13;;;14.50;99.90;;;;;;5032403;28;20254;-70
2021/12/30 20:02:54;;;;;;;4.40;2.97;;;14.50;99.90;;;;;;5047793;28;20197;-69
2021/12/30 20:05:21;;;;;;;3.37;2.80;;;14.50;99.90;;;;;;5056105;28;20694;-69
2021/12/30 20:07:46;;;;;;;4.70;2.87;;;14.50;99.90;;;;;;5045737;28;21164;-69
2021/12/30 20:10:14;;;;;;;3.20;2.17;;;14.40;99.90;;;;;;5046594;28;20447;-69
2021/12/30 20:12:40;;;;;;;4.73;2.80;;;14.50;99.90;;;;;;5047193;28;20246;-69